createdAt,value
2023-04-25T00:02:23.804Z,4.07
2023-04-25T00:04:53.799Z,5.03
2023-04-25T00:07:22.203Z,6.30
2023-04-25T00:09:50.248Z,7.27
2023-04-25T00:12:18.699Z,8.23
2023-04-25T00:14:47.558Z,8.27
2023-04-25T00:17:15.993Z,10.67
2023-04-25T00:19:45.607Z,10.37
2023-04-25T00:22:14.713Z,11.63
2023-04-25T00:24:42.482Z,10.97
2023-04-25T00:27:10.248Z,12.13
2023-04-25T00:29:40.506Z,11.77
2023-04-25T00:32:08.455Z,12.87
2023-04-25T00:34:36.451Z,12.80
2023-04-25T00:37:04.612Z,12.30
2023-04-25T00:39:34.365Z,13.90
2023-04-25T00:42:03.117Z,13.93
2023-04-25T00:44:32.121Z,12.60
2023-04-25T00:47:00.424Z,13.50
2023-04-25T00:49:28.738Z,13.27
2023-04-25T00:51:57.040Z,13.33
2023-04-25T00:54:24.899Z,12.90
2023-04-25T00:56:55.209Z,13.10
2023-04-25T00:59:23.120Z,13.40
2023-04-25T01:01:50.952Z,12.30
2023-04-25T01:04:19.164Z,13.73
2023-04-25T01:06:47.354Z,13.07
2023-04-25T01:09:15.878Z,13.70
2023-04-25T01:11:43.847Z,12.80
2023-04-25T01:14:12.962Z,12.90
2023-04-25T01:16:40.790Z,13.07
2023-04-25T01:19:10.316Z,12.07
2023-04-25T01:21:39.410Z,12.13
2023-04-25T01:24:07.996Z,12.87
2023-04-25T01:26:36.246Z,11.33
2023-04-25T01:29:04.386Z,11.23
2023-04-25T01:31:32.590Z,12.07
2023-04-25T01:34:00.608Z,11.80
2023-04-25T01:36:28.898Z,11.97
2023-04-25T01:38:58.124Z,11.30
2023-04-25T01:41:26.348Z,11.00
2023-04-25T01:43:54.372Z,11.10
2023-04-25T01:46:22.257Z,10.73
2023-04-25T01:48:50.050Z,10.20
2023-04-25T01:51:17.859Z,10.30
2023-04-25T01:53:46.020Z,10.60
2023-04-25T01:56:15.836Z,9.70
2023-04-25T01:58:43.890Z,10.50
2023-04-25T02:01:12.422Z,9.77
2023-04-25T02:03:40.567Z,10.23
2023-04-25T02:06:11.860Z,9.03
2023-04-25T02:08:40.132Z,9.00
2023-04-25T02:11:08.047Z,9.33
2023-04-25T02:13:37.464Z,8.73
2023-04-25T02:16:05.515Z,9.60
2023-04-25T02:18:34.513Z,9.17
2023-04-25T02:21:03.805Z,8.70
2023-04-25T02:23:31.681Z,8.70
2023-04-25T02:25:59.729Z,8.33
2023-04-25T02:28:28.037Z,8.57
2023-04-25T02:30:57.144Z,7.67
2023-04-25T02:33:25.323Z,8.23
2023-04-25T02:35:53.034Z,8.07
2023-04-25T02:38:20.701Z,8.40
2023-04-25T02:40:48.650Z,7.40
2023-04-25T02:43:17.480Z,7.60
2023-04-25T02:45:45.403Z,7.90
2023-04-25T02:48:14.809Z,6.80
2023-04-25T02:50:43.294Z,7.30
2023-04-25T02:53:11.835Z,7.57
2023-04-25T02:55:39.976Z,7.13
2023-04-25T02:58:08.345Z,6.93
2023-04-25T03:00:36.272Z,7.00
2023-04-25T03:03:04.389Z,6.50
2023-04-25T03:05:34.023Z,6.20
2023-04-25T03:08:01.884Z,6.87
2023-04-25T03:10:29.749Z,6.03
2023-04-25T03:12:57.595Z,6.30
2023-04-25T03:15:25.274Z,5.90
2023-04-25T03:17:53.018Z,5.80
2023-04-25T03:20:20.734Z,6.10
2023-04-25T03:22:50.106Z,6.40
2023-04-25T03:25:17.969Z,5.50
2023-04-25T03:27:45.897Z,6.00
2023-04-25T03:30:14.327Z,6.00
2023-04-25T03:32:42.295Z,6.20
2023-04-25T03:35:10.642Z,6.10
2023-04-25T03:37:38.602Z,6.03
2023-04-25T03:40:10.163Z,5.83
2023-04-25T03:42:38.165Z,5.47
2023-04-25T03:45:07.744Z,5.57
2023-04-25T03:47:35.678Z,5.33
2023-04-25T03:50:03.915Z,5.10
2023-04-25T03:52:32.060Z,4.97
2023-04-25T03:54:59.962Z,5.20
2023-04-25T03:57:29.343Z,5.47
2023-04-25T03:59:57.192Z,5.17
2023-04-25T04:02:25.335Z,5.47
2023-04-25T04:04:53.869Z,5.40
2023-04-25T04:07:21.845Z,5.07
2023-04-25T04:09:49.531Z,4.60
2023-04-25T04:12:17.266Z,4.60
2023-04-25T04:14:46.282Z,4.87
2023-04-25T04:17:13.942Z,4.87
2023-04-25T04:19:42.069Z,4.93
2023-04-25T04:22:09.773Z,4.50
2023-04-25T04:24:37.451Z,4.67
2023-04-25T04:27:05.254Z,4.87
2023-04-25T04:29:32.951Z,4.93
2023-04-25T04:32:03.704Z,4.57
2023-04-25T04:34:32.712Z,4.70
2023-04-25T04:37:01.479Z,4.90
2023-04-25T04:39:29.515Z,4.33
2023-04-25T04:41:57.779Z,4.80
2023-04-25T04:44:27.394Z,4.13
2023-04-25T04:46:55.393Z,4.37
2023-04-25T04:49:25.125Z,4.43
2023-04-25T04:51:53.393Z,5.10
2023-04-25T04:54:21.340Z,4.10
2023-04-25T04:56:49.388Z,4.30
2023-04-25T04:59:17.318Z,4.53
2023-04-25T05:01:45.400Z,4.60
2023-04-25T05:04:13.515Z,4.13
2023-04-25T05:06:43.254Z,4.97
2023-04-25T05:09:11.242Z,5.03
2023-04-25T05:11:39.128Z,4.93
2023-04-25T05:14:07.371Z,4.50
2023-04-25T05:16:35.382Z,5.07
2023-04-25T05:19:03.611Z,4.77
2023-04-25T05:21:32.735Z,4.80
2023-04-25T05:24:02.428Z,4.90
2023-04-25T05:26:32.019Z,4.30
2023-04-25T05:29:00.131Z,4.80
2023-04-25T05:31:27.955Z,5.37
2023-04-25T05:33:55.677Z,4.77
2023-04-25T05:36:23.419Z,4.53
2023-04-25T05:38:51.244Z,5.17
2023-04-25T05:41:20.961Z,4.63
2023-04-25T05:43:50.652Z,4.43
2023-04-25T05:46:19.184Z,4.80
2023-04-25T05:48:47.214Z,4.53
2023-04-25T05:51:15.091Z,4.73
2023-04-25T05:53:43.070Z,4.10
2023-04-25T05:56:11.079Z,4.60
2023-04-25T05:58:40.443Z,4.87
2023-04-25T06:01:08.544Z,4.03
2023-04-25T06:03:36.831Z,5.67
2023-04-25T06:06:05.600Z,4.50
2023-04-25T06:08:33.947Z,4.23
2023-04-25T06:11:01.820Z,4.37
2023-04-25T06:13:29.793Z,4.10
2023-04-25T06:15:59.205Z,4.17
2023-04-25T06:18:27.106Z,4.63
2023-04-25T06:20:55.034Z,4.10
2023-04-25T06:23:22.843Z,3.60
2023-04-25T06:25:50.547Z,4.07
2023-04-25T06:28:18.260Z,3.70
2023-04-25T06:30:46.058Z,3.43
2023-04-25T06:33:16.022Z,4.20
2023-04-25T06:35:43.743Z,3.90
2023-04-25T06:38:11.434Z,3.73
2023-04-25T06:40:41.944Z,3.83
2023-04-25T06:43:10.078Z,3.80
2023-04-25T06:45:38.524Z,3.63
2023-04-25T06:48:06.721Z,4.20
2023-04-25T06:50:36.542Z,3.90
2023-04-25T06:53:04.402Z,3.87
2023-04-25T06:55:32.378Z,3.90
2023-04-25T06:58:01.393Z,3.13
2023-04-25T07:00:29.573Z,3.77
2023-04-25T07:02:57.715Z,3.70
2023-04-25T07:05:26.424Z,3.70
2023-04-25T07:07:55.927Z,3.90
2023-04-25T07:10:24.077Z,3.63
2023-04-25T07:12:52.071Z,3.27
2023-04-25T07:15:20.178Z,3.63
2023-04-25T07:17:48.244Z,3.27
2023-04-25T07:20:17.176Z,3.50
2023-04-25T07:22:45.181Z,3.10
2023-04-25T07:25:14.612Z,3.03
2023-04-25T07:27:42.445Z,3.20
2023-04-25T07:30:11.268Z,3.03
2023-04-25T07:32:39.203Z,3.30
2023-04-25T07:35:08.104Z,3.60
2023-04-25T07:37:36.463Z,2.70
2023-04-25T07:40:05.459Z,3.00
2023-04-25T07:42:34.887Z,3.03
2023-04-25T07:45:03.651Z,3.27
2023-04-25T07:47:32.023Z,2.90
2023-04-25T07:50:00.398Z,3.13
2023-04-25T07:52:28.493Z,3.03
2023-04-25T07:54:56.220Z,3.30
2023-04-25T07:57:25.674Z,2.60
2023-04-25T07:59:55.109Z,3.03
2023-04-25T08:02:22.819Z,2.97
2023-04-25T08:04:54.059Z,2.93
2023-04-25T08:07:22.148Z,2.63
2023-04-25T08:09:51.640Z,2.73
2023-04-25T08:12:21.622Z,2.87
2023-04-25T08:14:51.064Z,2.93
2023-04-25T08:17:21.468Z,3.17
2023-04-25T08:19:49.698Z,2.70
2023-04-25T08:22:17.706Z,2.80
2023-04-25T08:24:45.554Z,3.10
2023-04-25T08:27:13.553Z,3.07
2023-04-25T08:29:41.545Z,2.90
2023-04-25T08:32:09.566Z,2.63
2023-04-25T08:34:40.553Z,2.93
2023-04-25T08:37:32.197Z,3.30
2023-04-25T08:40:00.363Z,2.70
2023-04-25T08:42:29.938Z,2.50
2023-04-25T08:44:58.196Z,2.83
2023-04-25T08:47:26.339Z,2.90
2023-04-25T08:49:55.846Z,2.70
2023-04-25T08:52:24.586Z,2.93
2023-04-25T08:54:56.256Z,3.10
2023-04-25T08:57:25.454Z,2.47
2023-04-25T08:59:59.488Z,2.63
2023-04-25T09:02:42.877Z,2.40
2023-04-25T09:05:28.868Z,3.07
2023-04-25T09:07:57.415Z,3.10
2023-04-25T09:10:25.472Z,2.77
2023-04-25T09:13:07.462Z,2.30
2023-04-25T09:15:35.732Z,3.10
2023-04-25T09:18:06.701Z,2.40
2023-04-25T09:23:24.570Z,2.20
2023-04-25T09:25:55.381Z,2.90
2023-04-25T09:28:31.103Z,2.60
2023-04-25T09:30:59.994Z,2.30
2023-04-25T09:33:32.072Z,2.50
2023-04-25T09:36:05.996Z,2.90
2023-04-25T09:38:34.597Z,2.30
2023-04-25T09:41:05.022Z,2.80
2023-04-25T09:43:33.064Z,2.13
2023-04-25T09:46:02.563Z,2.60
2023-04-25T09:48:31.095Z,2.53
2023-04-25T09:51:10.629Z,2.73
2023-04-25T09:53:39.884Z,3.17
2023-04-25T09:56:08.815Z,2.43
2023-04-25T09:58:40.050Z,2.90
2023-04-25T10:01:10.920Z,3.03
2023-04-25T10:03:40.883Z,2.80
2023-04-25T10:06:12.207Z,2.30
2023-04-25T10:08:40.422Z,2.50
2023-04-25T10:11:09.213Z,3.30
2023-04-25T10:13:37.664Z,3.23
2023-04-25T10:16:07.874Z,1.93
2023-04-25T10:18:36.141Z,1.70
2023-04-25T10:21:05.263Z,1.50
2023-04-25T10:23:49.858Z,1.70
2023-04-25T10:26:21.401Z,2.10
2023-04-25T10:28:58.946Z,2.27
2023-04-25T10:31:27.293Z,1.93
2023-04-25T10:33:55.580Z,1.67
2023-04-25T10:36:24.061Z,2.30
2023-04-25T10:38:53.613Z,1.90
2023-04-25T10:41:22.847Z,1.80
2023-04-25T10:43:52.028Z,2.23
2023-04-25T10:46:21.511Z,2.00
2023-04-25T10:48:50.712Z,1.80
2023-04-25T10:51:20.358Z,1.97
2023-04-25T10:53:48.258Z,2.40
2023-04-25T10:56:21.102Z,2.50
2023-04-25T10:58:50.426Z,1.97
2023-04-25T11:01:22.410Z,2.10
2023-04-25T11:03:51.629Z,2.53
2023-04-25T11:06:24.533Z,1.90
2023-04-25T11:08:53.075Z,2.20
2023-04-25T11:11:22.386Z,2.63
2023-04-25T11:13:50.696Z,1.60
2023-04-25T11:16:27.669Z,2.10
2023-04-25T11:18:58.689Z,2.20
2023-04-25T11:21:28.826Z,2.63
2023-04-25T11:23:57.088Z,2.27
2023-04-25T11:26:26.680Z,2.50
2023-04-25T11:28:57.909Z,2.00
2023-04-25T11:31:27.227Z,2.10
2023-04-25T11:33:56.004Z,2.03
2023-04-25T11:36:25.701Z,2.50
2023-04-25T11:38:53.994Z,2.40
2023-04-25T11:41:23.325Z,2.20
2023-04-25T11:43:53.214Z,2.43
2023-04-25T11:46:21.950Z,2.50
2023-04-25T11:48:51.617Z,2.50
2023-04-25T11:51:24.531Z,2.43
2023-04-25T11:53:52.282Z,2.33
2023-04-25T11:56:20.041Z,2.43
2023-04-25T11:58:58.843Z,1.93
2023-04-25T12:01:31.835Z,2.10
2023-04-25T12:04:01.325Z,3.10
2023-04-25T12:06:30.065Z,2.43
2023-04-25T12:09:02.461Z,2.60
2023-04-25T12:11:30.897Z,2.50
2023-04-25T12:14:04.186Z,2.23
2023-04-25T12:16:32.501Z,2.10
2023-04-25T12:19:01.087Z,2.33
2023-04-25T12:21:31.413Z,2.30
2023-04-25T12:23:59.873Z,1.97
2023-04-25T12:26:28.644Z,2.77
2023-04-25T12:28:56.642Z,2.43
2023-04-25T12:31:26.718Z,2.00
2023-04-25T12:33:54.514Z,2.80
2023-04-25T12:36:23.166Z,3.20
2023-04-25T12:38:51.934Z,2.20
2023-04-25T12:41:20.090Z,2.63
2023-04-25T12:43:47.920Z,3.50
2023-04-25T12:46:16.314Z,1.90
2023-04-25T12:48:45.897Z,1.83
2023-04-25T12:51:14.291Z,1.17
2023-04-25T12:53:42.812Z,1.70
2023-04-25T12:56:10.935Z,1.13
2023-04-25T12:58:39.425Z,1.40
2023-04-25T13:01:08.150Z,1.70
2023-04-25T13:03:36.761Z,1.90
2023-04-25T13:06:06.951Z,1.50
2023-04-25T13:08:36.006Z,1.43
2023-04-25T13:11:04.093Z,1.80
2023-04-25T13:13:33.058Z,1.50
2023-04-25T13:16:01.135Z,1.60
2023-04-25T13:18:29.651Z,1.30
2023-04-25T13:20:57.525Z,1.60
2023-04-25T13:23:28.550Z,1.27
2023-04-25T13:25:58.690Z,1.37
2023-04-25T13:28:26.724Z,1.47
2023-04-25T13:30:54.886Z,1.63
2023-04-25T13:33:22.811Z,1.50
2023-04-25T13:35:54.914Z,1.60
2023-04-25T13:38:23.753Z,1.40
2023-04-25T13:40:53.446Z,1.80
2023-04-25T13:43:21.754Z,1.53
2023-04-25T13:45:49.758Z,1.70
2023-04-25T13:48:17.568Z,1.27
2023-04-25T13:50:46.118Z,1.73
2023-04-25T13:53:14.073Z,2.07
2023-04-25T13:55:41.967Z,1.83
2023-04-25T13:58:11.398Z,1.50
2023-04-25T14:00:41.010Z,1.43
2023-04-25T14:03:09.437Z,1.73
2023-04-25T14:05:39.226Z,1.57
2023-04-25T14:08:08.085Z,1.50
2023-04-25T14:10:38.577Z,2.17
2023-04-25T14:13:08.316Z,1.40
2023-04-25T14:15:39.794Z,1.60
2023-04-25T14:18:11.502Z,1.70
2023-04-25T14:20:39.744Z,1.60
2023-04-25T14:23:07.805Z,1.67
2023-04-25T14:25:36.771Z,2.00
2023-04-25T14:28:04.809Z,1.70
2023-04-25T14:30:33.271Z,1.70
2023-04-25T14:33:02.898Z,2.07
2023-04-25T14:35:31.134Z,2.03
2023-04-25T14:37:59.044Z,2.30
2023-04-25T14:40:27.698Z,2.40
2023-04-25T14:42:56.122Z,2.00
2023-04-25T14:45:24.142Z,1.67
2023-04-25T14:47:52.302Z,2.40
2023-04-25T14:50:21.933Z,1.70
2023-04-25T14:52:50.011Z,2.10
2023-04-25T14:55:18.078Z,2.17
2023-04-25T14:57:48.491Z,1.73
2023-04-25T15:00:17.694Z,1.70
2023-04-25T15:02:45.837Z,2.07
2023-04-25T15:05:14.535Z,1.90
2023-04-25T15:07:44.042Z,1.80
2023-04-25T15:10:14.716Z,2.20
2023-04-25T15:12:43.021Z,2.37
2023-04-25T15:18:04.608Z,2.50
2023-04-25T15:20:32.641Z,2.20
2023-04-25T15:23:10.492Z,2.07
2023-04-25T15:25:46.784Z,2.00
2023-04-25T15:28:42.078Z,1.80
2023-04-25T15:31:13.138Z,2.17
2023-04-25T15:33:58.757Z,1.70
2023-04-25T15:36:50.652Z,2.20
2023-04-25T15:39:21.770Z,2.23
2023-04-25T15:42:21.660Z,2.40
2023-04-25T15:44:50.051Z,1.70
2023-04-25T15:47:18.203Z,2.77
2023-04-25T15:49:47.174Z,2.10
2023-04-25T15:52:22.026Z,2.87
2023-04-25T15:54:52.180Z,2.50
2023-04-25T15:57:20.543Z,2.30
2023-04-25T15:59:49.923Z,2.40
2023-04-25T16:02:18.126Z,2.60
2023-04-25T16:04:46.734Z,2.47
2023-04-25T16:07:15.037Z,1.97
2023-04-25T16:09:43.012Z,2.30
2023-04-25T16:12:12.869Z,2.17
2023-04-25T16:14:40.972Z,2.37
2023-04-25T16:17:09.023Z,2.60
2023-04-25T16:19:37.755Z,2.40
2023-04-25T16:22:06.231Z,2.60
2023-04-25T16:24:34.270Z,2.33
2023-04-25T16:27:03.439Z,2.80
2023-04-25T16:29:32.949Z,3.00
2023-04-25T16:32:01.199Z,3.20
2023-04-25T16:34:29.970Z,3.00
2023-04-25T16:36:58.271Z,3.60
2023-04-25T16:39:26.745Z,3.50
2023-04-25T16:41:54.703Z,3.13
2023-04-25T16:44:23.348Z,4.23
2023-04-25T16:46:53.008Z,3.80
2023-04-25T16:49:21.783Z,4.03
2023-04-25T16:51:49.880Z,4.53
2023-04-25T16:54:17.952Z,3.97
2023-04-25T16:56:46.057Z,4.00
2023-04-25T16:59:14.087Z,4.33
2023-04-25T17:01:42.154Z,4.93
2023-04-25T17:04:11.974Z,5.20
2023-04-25T17:06:41.946Z,5.10
2023-04-25T17:09:10.587Z,4.93
2023-04-25T17:11:39.215Z,5.07
2023-04-25T17:14:07.482Z,5.03
2023-04-25T17:16:36.550Z,5.20
2023-04-25T17:19:08.160Z,5.03
2023-04-25T17:21:37.751Z,5.47
2023-04-25T17:24:10.841Z,4.70
2023-04-25T17:26:39.865Z,5.40
2023-04-25T17:29:12.439Z,4.23
2023-04-25T17:31:40.741Z,4.30
2023-04-25T17:34:09.876Z,5.60
2023-04-25T17:37:07.705Z,4.30
2023-04-25T17:43:12.395Z,4.50
2023-04-25T18:00:51.229Z,3.37
2023-04-25T18:05:12.342Z,3.03
2023-04-25T18:07:32.216Z,3.83
2023-04-25T18:39:39.907Z,2.90
2023-04-25T18:47:22.381Z,2.70
2023-04-25T18:49:51.225Z,3.13
2023-04-25T18:52:25.677Z,2.90
2023-04-25T18:55:12.210Z,2.93
2023-04-25T18:57:40.540Z,3.07
2023-04-25T19:00:11.323Z,2.63
2023-04-25T19:02:42.326Z,2.63
2023-04-25T19:05:12.314Z,2.73
2023-04-25T19:07:41.032Z,2.70
2023-04-25T19:10:12.619Z,2.80
2023-04-25T19:12:40.942Z,2.87
2023-04-25T19:15:12.054Z,3.10
2023-04-25T19:17:43.042Z,2.80
2023-04-25T19:20:15.197Z,3.13
2023-04-25T19:22:43.523Z,2.20
2023-04-25T19:25:13.186Z,2.90
2023-04-25T19:28:02.600Z,2.73
2023-04-25T19:30:31.696Z,3.03
2023-04-25T19:32:59.912Z,2.87
2023-04-25T19:35:32.914Z,3.40
2023-04-25T19:38:01.234Z,3.30
2023-04-25T19:40:29.367Z,3.33
2023-04-25T19:42:57.489Z,3.20
2023-04-25T19:45:25.822Z,3.23
2023-04-25T19:47:54.680Z,2.93
2023-04-25T19:50:25.611Z,2.77
2023-04-25T19:52:55.351Z,2.77
2023-04-25T19:55:26.607Z,3.00
2023-04-25T19:57:54.645Z,3.20
2023-04-25T20:00:22.950Z,3.73
2023-04-25T20:02:51.075Z,2.97
2023-04-25T20:05:19.155Z,2.80
2023-04-25T20:07:47.270Z,3.00
2023-04-25T20:10:16.890Z,2.63
2023-04-25T20:12:45.347Z,2.97
2023-04-25T20:15:13.193Z,2.70
2023-04-25T20:17:43.134Z,2.47
2023-04-25T20:20:14.062Z,3.23
2023-04-25T20:22:41.903Z,2.57
2023-04-25T20:25:10.824Z,3.00
2023-04-25T20:27:39.987Z,2.30
2023-04-25T20:30:08.867Z,2.43
2023-04-25T20:32:37.390Z,2.73
2023-04-25T20:35:07.138Z,2.63
2023-04-25T20:37:35.417Z,2.73
2023-04-25T20:40:04.379Z,3.20
2023-04-25T20:42:33.374Z,3.10
2023-04-25T20:45:07.533Z,3.20
2023-04-25T20:47:35.957Z,2.80
2023-04-25T20:50:05.931Z,2.40
2023-04-25T20:52:35.792Z,2.60
2023-04-25T20:55:03.899Z,3.20
2023-04-25T20:57:32.168Z,2.73
2023-04-25T21:00:00.312Z,3.10
2023-04-25T21:02:31.722Z,3.40
2023-04-25T21:04:59.822Z,3.17
2023-04-25T21:07:31.405Z,3.07
2023-04-25T21:09:59.557Z,2.87
2023-04-25T21:12:27.552Z,2.93
2023-04-25T21:14:55.708Z,2.93
2023-04-25T21:17:24.230Z,3.20
2023-04-25T21:19:53.547Z,3.30
2023-04-25T21:22:21.612Z,2.67
2023-04-25T21:24:50.737Z,2.63
2023-04-25T21:27:44.567Z,3.40
2023-04-25T21:30:20.512Z,2.90
2023-04-25T21:32:51.325Z,3.20
2023-04-25T21:35:20.849Z,3.60
2023-04-25T21:37:49.074Z,3.20
2023-04-25T21:40:16.960Z,3.43
2023-04-25T21:42:45.905Z,3.30
2023-04-25T21:45:13.755Z,3.40
2023-04-25T21:47:41.566Z,3.10
2023-04-25T21:50:10.199Z,3.50
2023-04-25T21:52:40.273Z,3.60
2023-04-25T21:55:09.390Z,3.67
2023-04-25T21:57:37.562Z,3.80
2023-04-25T22:00:19.814Z,7.57
2023-04-25T22:02:48.298Z,14.57
2023-04-25T22:05:16.761Z,16.03
2023-04-25T22:07:46.266Z,16.90
2023-04-25T22:10:14.341Z,16.10
2023-04-25T22:12:42.291Z,14.83
2023-04-25T22:15:12.674Z,14.47
2023-04-25T22:17:41.700Z,17.03
2023-04-25T22:20:13.992Z,18.40
2023-04-25T22:22:41.992Z,17.93
2023-04-25T22:25:12.775Z,17.93
2023-04-25T22:27:43.252Z,16.37
2023-04-25T22:30:12.926Z,17.07
2023-04-25T22:32:41.158Z,18.50
2023-04-25T22:35:10.355Z,18.67
2023-04-25T22:37:38.362Z,18.20
2023-04-25T22:40:08.940Z,19.90
2023-04-25T22:42:42.221Z,20.80
2023-04-25T22:45:11.426Z,21.27
2023-04-25T22:47:39.620Z,19.60
2023-04-25T22:50:13.150Z,20.10
2023-04-25T22:52:42.329Z,18.90
2023-04-25T22:55:12.017Z,19.33
2023-04-25T22:57:41.380Z,19.77
2023-04-25T23:00:16.177Z,19.50
2023-04-25T23:02:45.298Z,19.57
2023-04-25T23:05:14.002Z,18.40
2023-04-25T23:07:42.619Z,19.40
2023-04-25T23:10:10.766Z,17.50
2023-04-25T23:12:40.497Z,17.20
2023-04-25T23:15:10.845Z,18.10
2023-04-25T23:17:38.581Z,17.47
2023-04-25T23:20:10.904Z,17.60
2023-04-25T23:22:39.481Z,17.10
2023-04-25T23:25:09.072Z,16.27
2023-04-25T23:27:37.301Z,16.27
2023-04-25T23:30:06.676Z,15.40
2023-04-25T23:32:35.766Z,14.17
2023-04-25T23:35:04.720Z,13.83
2023-04-25T23:37:34.635Z,14.00
2023-04-25T23:40:02.734Z,14.63
2023-04-25T23:42:30.444Z,13.87
2023-04-25T23:44:58.125Z,13.80
2023-04-25T23:47:26.223Z,13.40
2023-04-25T23:49:55.711Z,12.50
2023-04-25T23:52:23.601Z,12.87
2023-04-25T23:54:52.490Z,12.40
2023-04-25T23:57:20.837Z,11.70
2023-04-25T23:59:49.185Z,12.43
